createdAt,value
2023-01-18T00:01:09.547Z,14.75
2023-01-18T00:03:38.199Z,15.57
2023-01-18T00:06:07.216Z,14.20
2023-01-18T00:08:35.832Z,14.48
2023-01-18T00:11:04.476Z,13.80
2023-01-18T00:13:31.267Z,15.25
2023-01-18T00:16:06.100Z,14.70
2023-01-18T00:18:33.069Z,13.25
2023-01-18T00:21:04.602Z,13.85
2023-01-18T00:23:31.468Z,13.98
2023-01-18T00:26:06.270Z,16.13
2023-01-18T00:28:33.376Z,14.13
2023-01-18T00:30:59.829Z,13.85
2023-01-18T00:36:02.888Z,14.18
2023-01-18T00:38:30.127Z,14.57
2023-01-18T00:40:57.240Z,14.57
2023-01-18T00:43:38.929Z,14.30
2023-01-18T00:46:06.337Z,14.18
2023-01-18T00:48:33.271Z,14.23
2023-01-18T00:51:00.092Z,13.95
2023-01-18T00:53:26.901Z,14.18
2023-01-18T00:55:53.324Z,14.65
2023-01-18T00:58:19.701Z,13.77
2023-01-18T01:00:48.007Z,14.48
2023-01-18T01:03:15.164Z,14.40
2023-01-18T01:06:00.209Z,14.35
2023-01-18T01:08:26.767Z,14.98
2023-01-18T01:13:48.133Z,12.45
2023-01-18T01:16:34.050Z,13.57
2023-01-18T01:19:19.225Z,13.10
2023-01-18T01:22:04.068Z,12.18
2023-01-18T01:24:48.914Z,14.48
2023-01-18T01:27:15.392Z,12.60
2023-01-18T01:32:08.483Z,13.27
2023-01-18T01:34:35.922Z,14.10
2023-01-18T01:37:03.434Z,12.68
2023-01-18T01:39:30.548Z,14.07
2023-01-18T01:41:57.556Z,13.80
2023-01-18T01:44:24.523Z,13.15
2023-01-18T01:46:53.679Z,13.02
2023-01-18T01:49:32.864Z,13.38
2023-01-18T01:52:04.254Z,13.50
2023-01-18T01:54:37.435Z,12.85
2023-01-18T01:57:10.973Z,13.27
2023-01-18T01:59:41.988Z,13.57
2023-01-18T02:02:09.701Z,13.45
2023-01-18T02:04:36.779Z,11.80
2023-01-18T02:07:03.306Z,12.23
2023-01-18T02:11:56.611Z,11.88
2023-01-18T02:14:26.573Z,11.95
2023-01-18T02:17:11.687Z,12.70
2023-01-18T02:20:19.944Z,11.75
2023-01-18T02:23:24.037Z,11.80
2023-01-18T02:26:28.343Z,11.27
2023-01-18T02:29:05.307Z,11.05
2023-01-18T02:31:40.157Z,11.23
2023-01-18T02:34:18.034Z,11.50
2023-01-18T02:37:03.778Z,11.30
2023-01-18T02:39:42.655Z,11.95
2023-01-18T02:42:39.936Z,11.18
2023-01-18T02:45:38.495Z,11.43
2023-01-18T02:48:07.657Z,12.27
2023-01-18T02:50:34.586Z,10.95
2023-01-18T02:53:00.994Z,12.57
2023-01-18T02:55:36.421Z,12.90
2023-01-18T02:58:09.778Z,11.23
2023-01-18T03:00:41.095Z,12.05
2023-01-18T03:03:11.241Z,11.50
2023-01-18T03:05:39.806Z,12.40
2023-01-18T03:08:16.602Z,11.18
2023-01-18T03:10:57.699Z,10.95
2023-01-18T03:14:05.422Z,11.30
2023-01-18T03:16:58.532Z,12.00
2023-01-18T03:19:57.140Z,11.10
2023-01-18T03:22:46.478Z,10.85
2023-01-18T03:25:19.023Z,11.52
2023-01-18T03:28:06.692Z,11.35
2023-01-18T03:30:53.251Z,12.60
2023-01-18T03:33:42.891Z,11.88
2023-01-18T03:36:16.517Z,10.75
2023-01-18T03:38:46.367Z,11.70
2023-01-18T03:41:14.207Z,11.18
2023-01-18T03:43:42.180Z,11.63
2023-01-18T03:46:08.917Z,11.90
2023-01-18T03:48:36.618Z,11.10
2023-01-18T03:51:26.341Z,11.98
2023-01-18T03:54:15.348Z,9.65
2023-01-18T03:56:53.887Z,11.65
2023-01-18T03:59:21.609Z,12.27
2023-01-18T04:01:49.046Z,11.40
2023-01-18T04:04:15.499Z,10.32
2023-01-18T04:09:08.914Z,11.57
2023-01-18T04:11:35.397Z,10.80
2023-01-18T04:16:28.253Z,10.82
2023-01-18T04:21:21.075Z,11.63
2023-01-18T04:26:16.656Z,10.15
2023-01-18T04:28:43.243Z,11.00
2023-01-18T04:33:36.423Z,11.32
2023-01-18T04:38:29.378Z,11.05
2023-01-18T04:43:29.639Z,11.80
2023-01-18T04:45:56.811Z,10.70
2023-01-18T04:48:24.377Z,12.45
2023-01-18T04:50:51.521Z,10.38
2023-01-18T04:53:18.325Z,10.40
2023-01-18T04:55:45.626Z,10.85
2023-01-18T04:58:12.240Z,10.50
2023-01-18T05:00:39.938Z,11.63
2023-01-18T05:03:08.064Z,10.40
2023-01-18T05:05:34.605Z,10.30
2023-01-18T05:10:27.821Z,10.23
2023-01-18T05:12:54.272Z,11.05
2023-01-18T05:15:20.773Z,10.57
2023-01-18T05:20:13.850Z,9.35
2023-01-18T05:22:40.327Z,10.02
2023-01-18T05:27:33.851Z,9.50
2023-01-18T05:30:01.803Z,9.35
2023-01-18T05:32:28.304Z,9.50
2023-01-18T05:37:21.129Z,9.27
2023-01-18T05:39:47.541Z,8.57
2023-01-18T05:44:40.921Z,9.02
2023-01-18T05:47:07.380Z,9.43
2023-01-18T05:49:33.811Z,9.32
2023-01-18T05:52:00.319Z,9.43
2023-01-18T05:56:53.130Z,9.77
2023-01-18T06:01:45.979Z,7.97
2023-01-18T06:06:38.837Z,7.95
2023-01-18T06:09:05.278Z,8.60
2023-01-18T06:13:58.046Z,6.90
2023-01-18T06:16:27.070Z,9.65
2023-01-18T06:18:53.655Z,8.18
2023-01-18T06:23:46.437Z,7.43
2023-01-18T06:26:12.940Z,8.20
2023-01-18T06:31:08.218Z,7.43
2023-01-18T06:33:34.950Z,7.22
2023-01-18T06:36:01.601Z,6.72
2023-01-18T06:38:29.782Z,7.63
2023-01-18T06:40:56.323Z,7.47
2023-01-18T06:45:56.339Z,7.47
2023-01-18T06:48:26.604Z,7.47
2023-01-18T06:50:56.011Z,6.50
2023-01-18T06:53:22.658Z,6.15
2023-01-18T06:55:57.093Z,6.53
2023-01-18T06:58:25.889Z,7.30
2023-01-18T07:01:00.150Z,6.53
2023-01-18T07:03:28.828Z,6.70
2023-01-18T07:05:56.657Z,6.45
2023-01-18T07:08:23.950Z,6.63
2023-01-18T07:10:52.839Z,6.00
2023-01-18T07:13:20.070Z,6.65
2023-01-18T07:15:54.278Z,7.30
2023-01-18T07:18:20.750Z,6.13
2023-01-18T07:20:47.561Z,6.95
2023-01-18T07:23:17.050Z,6.63
2023-01-18T07:25:43.497Z,6.80
2023-01-18T07:28:10.040Z,5.90
2023-01-18T07:30:39.485Z,6.60
2023-01-18T07:33:08.000Z,6.50
2023-01-18T07:35:37.139Z,6.80
2023-01-18T07:38:04.171Z,7.15
2023-01-18T07:40:31.088Z,7.18
2023-01-18T07:43:04.827Z,7.80
2023-01-18T07:45:34.167Z,8.57
2023-01-18T07:48:02.864Z,6.25
2023-01-18T07:50:33.954Z,7.03
2023-01-18T07:53:06.728Z,7.57
2023-01-18T07:55:33.941Z,6.60
2023-01-18T07:58:03.218Z,6.57
2023-01-18T08:00:35.034Z,6.90
2023-01-18T08:03:12.719Z,7.07
2023-01-18T08:05:39.757Z,6.75
2023-01-18T08:08:11.435Z,6.53
2023-01-18T08:10:38.663Z,6.90
2023-01-18T08:13:09.146Z,7.03
2023-01-18T08:15:39.339Z,6.57
2023-01-18T08:18:07.478Z,7.53
2023-01-18T08:20:34.373Z,7.40
2023-01-18T08:23:01.762Z,6.10
2023-01-18T08:25:30.256Z,6.40
2023-01-18T08:31:22.306Z,6.85
2023-01-18T08:34:00.863Z,7.00
2023-01-18T08:43:37.258Z,6.68
2023-01-18T08:46:22.323Z,6.88
2023-01-18T08:49:49.670Z,6.63
2023-01-18T08:52:16.463Z,6.00
2023-01-18T08:54:43.248Z,6.03
2023-01-18T08:57:11.027Z,6.43
2023-01-18T08:59:37.577Z,6.28
2023-01-18T09:04:30.733Z,6.00
2023-01-18T09:09:23.902Z,5.53
2023-01-18T09:11:51.873Z,6.20
2023-01-18T09:14:19.068Z,6.65
2023-01-18T09:16:45.631Z,5.82
2023-01-18T09:21:41.106Z,6.53
2023-01-18T09:24:08.030Z,6.97
2023-01-18T09:26:34.566Z,5.70
2023-01-18T09:31:40.702Z,6.15
2023-01-18T09:34:18.967Z,5.43
2023-01-18T09:36:49.286Z,6.50
2023-01-18T09:39:16.038Z,6.18
2023-01-18T09:41:47.098Z,6.20
2023-01-18T09:44:28.862Z,6.07
2023-01-18T09:47:03.179Z,5.97
2023-01-18T09:49:52.157Z,6.53
2023-01-18T09:52:34.261Z,5.88
2023-01-18T09:55:41.887Z,5.72
2023-01-18T09:58:19.260Z,5.82
2023-01-18T10:01:07.610Z,5.10
2023-01-18T10:06:55.376Z,5.45
2023-01-18T10:09:30.080Z,6.20
2023-01-18T10:11:56.512Z,5.40
2023-01-18T10:14:48.949Z,5.95
2023-01-18T10:17:21.429Z,5.22
2023-01-18T10:19:48.336Z,5.28
2023-01-18T10:22:31.994Z,5.47
2023-01-18T10:25:10.207Z,5.13
2023-01-18T10:28:28.381Z,4.90
2023-01-18T10:34:52.083Z,5.25
2023-01-18T10:37:38.947Z,5.25
2023-01-18T10:40:09.531Z,5.60
2023-01-18T10:42:48.158Z,6.03
2023-01-18T10:45:22.742Z,5.68
2023-01-18T10:47:51.519Z,5.03
2023-01-18T10:50:42.372Z,5.45
2023-01-18T10:53:23.867Z,4.68
2023-01-18T10:56:04.989Z,6.05
2023-01-18T10:59:11.277Z,4.68
2023-01-18T11:08:40.972Z,4.72
2023-01-18T11:11:56.189Z,4.55
2023-01-18T11:14:39.797Z,5.10
2023-01-18T11:17:11.765Z,5.35
2023-01-18T11:19:41.922Z,4.95
2023-01-18T11:22:13.427Z,4.75
2023-01-18T11:24:40.481Z,6.13
2023-01-18T11:27:26.048Z,4.38
2023-01-18T11:29:56.155Z,4.45
2023-01-18T11:32:29.276Z,3.95
2023-01-18T11:35:02.836Z,5.15
2023-01-18T11:37:36.656Z,9.13
2023-01-18T11:40:41.818Z,9.75
2023-01-18T11:43:20.520Z,7.78
2023-01-18T11:46:28.134Z,7.13
2023-01-18T11:49:23.936Z,4.30
2023-01-18T11:52:42.223Z,4.72
2023-01-18T11:55:23.985Z,5.32
2023-01-18T11:57:55.368Z,5.80
2023-01-18T12:00:28.079Z,5.53
2023-01-18T12:03:05.686Z,6.97
2023-01-18T12:05:45.990Z,6.68
2023-01-18T12:08:27.166Z,5.72
2023-01-18T12:11:05.994Z,7.25
2023-01-18T12:13:55.225Z,7.15
2023-01-18T12:16:30.900Z,7.72
2023-01-18T12:19:30.085Z,7.80
2023-01-18T12:22:34.602Z,6.57
2023-01-18T12:25:18.591Z,8.55
2023-01-18T12:28:22.459Z,6.80
2023-01-18T12:31:23.513Z,7.38
2023-01-18T12:34:12.776Z,7.40
2023-01-18T12:37:02.841Z,6.70
2023-01-18T12:40:14.456Z,6.82
2023-01-18T12:42:55.563Z,6.82
2023-01-18T12:45:44.127Z,6.50
2023-01-18T12:48:13.790Z,6.68
2023-01-18T12:50:43.597Z,6.50
2023-01-18T12:53:37.786Z,6.65
2023-01-18T12:56:16.899Z,6.50
2023-01-18T12:58:44.241Z,6.03
2023-01-18T13:01:16.562Z,6.30
2023-01-18T13:03:47.281Z,6.85
2023-01-18T13:06:18.603Z,6.97
2023-01-18T13:08:52.852Z,7.07
2023-01-18T13:11:30.141Z,7.78
2023-01-18T13:14:11.557Z,7.72
2023-01-18T13:16:47.831Z,8.65
2023-01-18T13:19:24.934Z,7.77
2023-01-18T13:24:42.739Z,7.45
2023-01-18T13:27:12.551Z,7.65
2023-01-18T13:29:40.707Z,8.05
2023-01-18T13:32:38.011Z,8.60
2023-01-18T13:35:20.446Z,8.70
2023-01-18T13:38:01.420Z,9.02
2023-01-18T13:40:43.026Z,8.98
2023-01-18T13:43:36.100Z,9.90
2023-01-18T13:46:09.010Z,8.88
2023-01-18T13:48:45.352Z,9.77
2023-01-18T13:51:43.039Z,7.65
2023-01-18T13:54:18.673Z,8.00
2023-01-18T13:57:16.828Z,8.40
2023-01-18T13:59:52.314Z,8.38
2023-01-18T14:02:25.581Z,8.80
2023-01-18T14:05:28.244Z,8.65
2023-01-18T14:07:57.965Z,7.68
2023-01-18T14:10:27.937Z,8.05
2023-01-18T14:12:57.170Z,7.80
2023-01-18T14:15:49.196Z,8.90
2023-01-18T14:18:28.486Z,6.97
2023-01-18T14:21:15.269Z,8.65
2023-01-18T14:24:06.740Z,8.38
2023-01-18T14:26:37.788Z,7.82
2023-01-18T14:29:14.387Z,7.45
2023-01-18T14:31:52.247Z,8.60
2023-01-18T14:34:43.804Z,6.97
2023-01-18T14:37:28.936Z,8.15
2023-01-18T14:40:17.885Z,7.45
2023-01-18T14:42:49.529Z,7.68
2023-01-18T14:45:24.331Z,8.38
2023-01-18T14:47:53.871Z,7.03
2023-01-18T14:50:24.911Z,6.95
2023-01-18T14:52:58.065Z,6.57
2023-01-18T14:55:34.571Z,7.07
2023-01-18T14:58:11.829Z,8.07
2023-01-18T15:04:39.073Z,7.43
2023-01-18T15:07:13.977Z,7.53
2023-01-18T15:09:45.859Z,8.35
2023-01-18T15:12:16.948Z,8.10
2023-01-18T15:14:47.400Z,8.02
2023-01-18T15:17:26.594Z,7.72
2023-01-18T15:19:58.049Z,8.98
2023-01-18T15:22:31.135Z,9.00
2023-01-18T15:24:59.514Z,8.98
2023-01-18T15:27:31.710Z,10.35
2023-01-18T15:30:00.410Z,8.43
2023-01-18T15:32:29.948Z,9.45
2023-01-18T15:34:58.235Z,8.85
2023-01-18T15:37:27.683Z,8.23
2023-01-18T15:39:57.775Z,9.35
2023-01-18T15:42:46.959Z,8.70
2023-01-18T15:45:40.441Z,9.73
2023-01-18T15:48:22.674Z,10.30
2023-01-18T15:50:58.319Z,11.00
2023-01-18T15:53:35.689Z,8.65
2023-01-18T15:56:15.451Z,8.68
2023-01-18T15:58:47.788Z,8.48
2023-01-18T16:01:16.001Z,7.97
2023-01-18T16:03:48.462Z,8.38
2023-01-18T16:06:18.896Z,8.70
2023-01-18T16:09:11.834Z,9.38
2023-01-18T16:11:39.742Z,8.65
2023-01-18T16:14:22.389Z,8.50
2023-01-18T16:16:49.487Z,8.85
2023-01-18T16:19:16.006Z,9.27
2023-01-18T16:22:04.934Z,10.35
2023-01-18T16:24:45.461Z,10.77
2023-01-18T16:27:19.037Z,8.60
2023-01-18T16:29:52.343Z,9.75
2023-01-18T16:32:21.829Z,9.30
2023-01-18T16:34:48.780Z,11.38
2023-01-18T16:37:15.328Z,13.85
2023-01-18T16:42:12.100Z,12.38
2023-01-18T16:44:41.756Z,15.20
2023-01-18T16:47:11.819Z,16.83
2023-01-18T16:49:41.679Z,25.85
2023-01-18T16:52:13.131Z,23.08
2023-01-18T16:54:41.990Z,25.27
2023-01-18T16:57:17.907Z,20.67
2023-01-18T16:59:44.543Z,16.73
2023-01-18T17:04:38.108Z,16.23
2023-01-18T17:07:06.721Z,15.80
2023-01-18T17:09:47.820Z,17.27
2023-01-18T17:12:15.695Z,15.30
2023-01-18T17:14:42.295Z,14.30
2023-01-18T17:19:37.775Z,12.85
2023-01-18T17:22:04.435Z,14.50
2023-01-18T17:28:05.155Z,11.77
2023-01-18T17:30:32.941Z,12.38
2023-01-18T17:32:59.922Z,12.38
2023-01-18T17:35:28.534Z,11.13
2023-01-18T17:38:11.394Z,12.45
2023-01-18T17:40:44.009Z,12.05
2023-01-18T17:43:28.565Z,13.52
2023-01-18T17:46:02.273Z,10.77
2023-01-18T17:48:29.314Z,13.05
2023-01-18T17:50:55.905Z,12.50
2023-01-18T17:55:48.749Z,11.70
2023-01-18T18:00:42.016Z,12.52
2023-01-18T18:03:09.305Z,12.63
2023-01-18T18:05:35.983Z,12.50
2023-01-18T18:10:28.927Z,11.45
2023-01-18T18:12:57.174Z,12.05
2023-01-18T18:15:23.885Z,11.80
2023-01-18T18:17:51.031Z,12.10
2023-01-18T18:20:17.854Z,11.52
2023-01-18T18:22:44.607Z,13.00
2023-01-18T18:25:11.414Z,11.93
2023-01-18T18:27:45.344Z,12.18
2023-01-18T18:30:12.991Z,12.05
2023-01-18T18:32:39.896Z,12.15
2023-01-18T18:35:19.460Z,12.32
2023-01-18T18:37:51.660Z,15.88
2023-01-18T18:40:19.577Z,14.98
2023-01-18T18:42:56.486Z,12.75
2023-01-18T18:45:28.391Z,12.40
2023-01-18T18:47:55.196Z,13.10
2023-01-18T18:50:22.003Z,13.45
2023-01-18T18:52:48.825Z,13.45
2023-01-18T18:55:15.637Z,12.98
2023-01-18T18:57:42.201Z,14.13
2023-01-18T19:02:47.619Z,11.35
2023-01-18T19:05:15.605Z,13.88
2023-01-18T19:07:48.102Z,13.48
2023-01-18T19:10:15.470Z,13.60
2023-01-18T19:12:44.940Z,13.15
2023-01-18T19:15:16.910Z,13.35
2023-01-18T19:17:43.672Z,13.30
2023-01-18T19:20:13.970Z,13.65
2023-01-18T19:22:40.733Z,15.07
2023-01-18T19:25:11.058Z,13.90
2023-01-18T19:27:37.981Z,14.23
2023-01-18T19:30:15.476Z,12.68
2023-01-18T19:32:55.755Z,14.18
2023-01-18T19:35:30.599Z,17.17
2023-01-18T19:38:01.120Z,17.77
2023-01-18T19:40:30.593Z,16.80
2023-01-18T19:43:00.910Z,16.55
2023-01-18T19:46:15.727Z,17.77
2023-01-18T19:49:06.729Z,15.40
2023-01-18T19:51:57.940Z,14.70
2023-01-18T19:54:35.444Z,14.63
2023-01-18T19:57:18.256Z,14.40
2023-01-18T20:00:00.613Z,14.07
2023-01-18T20:05:34.393Z,16.50
2023-01-18T20:15:11.478Z,14.70
2023-01-18T20:21:39.319Z,14.57
2023-01-18T20:24:43.462Z,13.70
2023-01-18T20:27:53.623Z,15.80
2023-01-18T20:30:46.568Z,15.73
2023-01-18T20:37:00.898Z,14.38
2023-01-18T20:40:04.881Z,15.98
2023-01-18T20:42:37.641Z,16.25
2023-01-18T20:45:07.536Z,14.25
2023-01-18T20:47:34.775Z,14.60
2023-01-18T20:50:16.540Z,15.13
2023-01-18T20:52:55.933Z,14.55
2023-01-18T21:02:26.475Z,14.68
2023-01-18T21:05:04.223Z,13.93
2023-01-18T21:07:59.554Z,14.25
2023-01-18T21:10:38.855Z,16.40
2023-01-18T21:13:17.067Z,16.33
2023-01-18T21:16:28.884Z,14.93
2023-01-18T21:19:13.846Z,14.32
2023-01-18T21:22:10.256Z,15.10
2023-01-18T21:24:44.822Z,14.90
2023-01-18T21:27:18.681Z,14.48
2023-01-18T21:29:45.971Z,15.18
2023-01-18T21:32:25.800Z,15.88
2023-01-18T21:34:55.806Z,15.15
2023-01-18T21:37:30.892Z,15.05
2023-01-18T21:40:06.310Z,13.52
2023-01-18T21:43:02.202Z,15.82
2023-01-18T21:45:47.399Z,15.15
2023-01-18T21:48:14.257Z,14.82
2023-01-18T21:54:01.396Z,14.40
2023-01-18T21:56:31.279Z,16.50
2023-01-18T21:59:00.432Z,17.02
2023-01-18T22:01:38.655Z,16.35
2023-01-18T22:04:27.359Z,17.13
2023-01-18T22:06:54.218Z,16.27
2023-01-18T22:09:21.264Z,16.52
2023-01-18T22:11:48.266Z,15.55
2023-01-18T22:14:15.852Z,17.33
2023-01-18T22:16:42.501Z,15.27
2023-01-18T22:19:20.717Z,15.18
2023-01-18T22:21:49.982Z,17.65
2023-01-18T22:24:17.654Z,14.63
2023-01-18T22:26:45.440Z,15.27
2023-01-18T22:29:12.593Z,16.10
2023-01-18T22:31:39.567Z,15.82
2023-01-18T22:34:07.510Z,16.40
2023-01-18T22:36:34.361Z,15.07
2023-01-18T22:39:01.056Z,16.15
2023-01-18T22:41:29.042Z,14.65
2023-01-18T22:43:56.441Z,16.60
2023-01-18T22:46:23.964Z,14.30
2023-01-18T22:48:51.008Z,14.70
2023-01-18T22:51:20.057Z,14.85
2023-01-18T22:53:46.542Z,13.63
2023-01-18T22:58:40.521Z,15.73
2023-01-18T23:03:53.443Z,13.25
2023-01-18T23:06:20.786Z,13.55
2023-01-18T23:08:47.958Z,14.32
2023-01-18T23:11:17.918Z,15.77
2023-01-18T23:14:07.055Z,14.43
2023-01-18T23:16:52.135Z,13.57
2023-01-18T23:19:19.181Z,15.07
2023-01-18T23:21:45.990Z,15.18
2023-01-18T23:24:12.686Z,14.05
2023-01-18T23:26:39.378Z,14.48
2023-01-18T23:29:05.859Z,14.65
2023-01-18T23:33:58.662Z,13.20
2023-01-18T23:36:25.148Z,14.40
2023-01-18T23:41:55.556Z,13.05
2023-01-18T23:44:40.663Z,13.68
2023-01-18T23:47:25.564Z,15.43
2023-01-18T23:50:10.529Z,14.40
2023-01-18T23:52:55.327Z,12.68
2023-01-18T23:55:21.832Z,13.93
